sensor_id;sensor_type;location;lat;lon;timestamp;temperature;humidity
46137;DHT22;31871;49.418;8.752;2022-08-02T12:26:46;29.00;60.70
46137;DHT22;31871;49.418;8.752;2022-08-02T12:29:13;28.70;60.60
46137;DHT22;31871;49.418;8.752;2022-08-02T12:31:46;28.80;60.50
46137;DHT22;31871;49.418;8.752;2022-08-02T12:34:17;28.80;60.60
46137;DHT22;31871;49.418;8.752;2022-08-02T12:36:43;28.90;60.70
46137;DHT22;31871;49.418;8.752;2022-08-02T12:39:32;29.00;60.40
46137;DHT22;31871;49.418;8.752;2022-08-02T12:41:58;29.20;61.00
46137;DHT22;31871;49.418;8.752;2022-08-02T12:44:24;29.30;58.40
46137;DHT22;31871;49.418;8.752;2022-08-02T12:47:07;29.30;59.10
46137;DHT22;31871;49.418;8.752;2022-08-02T12:49:36;29.30;59.40
46137;DHT22;31871;49.418;8.752;2022-08-02T12:52:18;29.20;59.50
46137;DHT22;31871;49.418;8.752;2022-08-02T12:54:44;29.40;58.00
46137;DHT22;31871;49.418;8.752;2022-08-02T12:57:14;29.60;58.60
46137;DHT22;31871;49.418;8.752;2022-08-02T12:59:42;29.80;58.80
46137;DHT22;31871;49.418;8.752;2022-08-02T13:02:10;30.00;57.50
46137;DHT22;31871;49.418;8.752;2022-08-02T13:04:36;30.00;55.80
46137;DHT22;31871;49.418;8.752;2022-08-02T13:07:03;29.70;56.70
46137;DHT22;31871;49.418;8.752;2022-08-02T13:09:38;29.50;56.60
46137;DHT22;31871;49.418;8.752;2022-08-02T13:12:05;29.40;58.80
46137;DHT22;31871;49.418;8.752;2022-08-02T13:14:31;29.60;58.40
46137;DHT22;31871;49.418;8.752;2022-08-02T13:16:57;30.20;56.90
46137;DHT22;31871;49.418;8.752;2022-08-02T13:19:23;30.00;55.40
46137;DHT22;31871;49.418;8.752;2022-08-02T13:21:49;29.60;55.90
46137;DHT22;31871;49.418;8.752;2022-08-02T13:24:15;29.70;55.70
46137;DHT22;31871;49.418;8.752;2022-08-02T13:26:42;30.00;55.20
46137;DHT22;31871;49.418;8.752;2022-08-02T13:29:08;30.10;54.90
46137;DHT22;31871;49.418;8.752;2022-08-02T13:31:34;30.10;55.70
46137;DHT22;31871;49.418;8.752;2022-08-02T13:34:05;30.30;53.30
46137;DHT22;31871;49.418;8.752;2022-08-02T13:36:33;30.10;54.00
46137;DHT22;31871;49.418;8.752;2022-08-02T13:38:59;29.90;56.10
46137;DHT22;31871;49.418;8.752;2022-08-02T13:41:25;29.80;52.30
46137;DHT22;31871;49.418;8.752;2022-08-02T13:43:50;29.60;53.80
46137;DHT22;31871;49.418;8.752;2022-08-02T13:46:16;29.70;53.90
46137;DHT22;31871;49.418;8.752;2022-08-02T13:48:42;29.60;52.90
46137;DHT22;31871;49.418;8.752;2022-08-02T13:51:07;29.50;53.60
46137;DHT22;31871;49.418;8.752;2022-08-02T13:53:37;29.50;54.80
46137;DHT22;31871;49.418;8.752;2022-08-02T13:56:03;29.70;52.90
46137;DHT22;31871;49.418;8.752;2022-08-02T13:58:29;29.70;53.00
46137;DHT22;31871;49.418;8.752;2022-08-02T14:00:54;29.70;53.10
46137;DHT22;31871;49.418;8.752;2022-08-02T14:03:20;29.90;53.10
46137;DHT22;31871;49.418;8.752;2022-08-02T14:05:46;30.50;52.40
46137;DHT22;31871;49.418;8.752;2022-08-02T14:08:12;30.90;51.60
46137;DHT22;31871;49.418;8.752;2022-08-02T14:10:38;30.90;51.50
46137;DHT22;31871;49.418;8.752;2022-08-02T14:13:04;30.80;52.00
46137;DHT22;31871;49.418;8.752;2022-08-02T14:15:29;30.90;50.30
46137;DHT22;31871;49.418;8.752;2022-08-02T14:17:55;30.90;49.40
46137;DHT22;31871;49.418;8.752;2022-08-02T14:20:21;30.50;50.10
46137;DHT22;31871;49.418;8.752;2022-08-02T14:22:46;30.30;50.50
46137;DHT22;31871;49.418;8.752;2022-08-02T14:25:12;30.10;50.10
46137;DHT22;31871;49.418;8.752;2022-08-02T14:27:37;29.90;50.60
46137;DHT22;31871;49.418;8.752;2022-08-02T14:30:03;30.00;49.80
46137;DHT22;31871;49.418;8.752;2022-08-02T14:32:29;30.10;49.30
46137;DHT22;31871;49.418;8.752;2022-08-02T14:34:55;30.10;51.30
46137;DHT22;31871;49.418;8.752;2022-08-02T14:37:20;30.00;50.60
46137;DHT22;31871;49.418;8.752;2022-08-02T14:39:46;29.70;53.30
46137;DHT22;31871;49.418;8.752;2022-08-02T14:42:12;29.80;51.60
46137;DHT22;31871;49.418;8.752;2022-08-02T14:44:38;30.00;51.20
46137;DHT22;31871;49.418;8.752;2022-08-02T14:47:04;29.80;51.10
46137;DHT22;31871;49.418;8.752;2022-08-02T14:49:34;29.70;52.00
46137;DHT22;31871;49.418;8.752;2022-08-02T14:51:59;29.80;51.60
46137;DHT22;31871;49.418;8.752;2022-08-02T14:54:25;30.00;52.30
46137;DHT22;31871;49.418;8.752;2022-08-02T14:56:54;30.10;50.40
46137;DHT22;31871;49.418;8.752;2022-08-02T14:59:19;30.30;49.50
46137;DHT22;31871;49.418;8.752;2022-08-02T15:01:45;30.40;49.90
46137;DHT22;31871;49.418;8.752;2022-08-02T15:04:10;30.50;50.70
46137;DHT22;31871;49.418;8.752;2022-08-02T15:06:36;30.20;50.80
46137;DHT22;31871;49.418;8.752;2022-08-02T15:09:02;30.10;50.60
46137;DHT22;31871;49.418;8.752;2022-08-02T15:11:27;30.30;50.20
46137;DHT22;31871;49.418;8.752;2022-08-02T15:13:53;30.30;49.30
46137;DHT22;31871;49.418;8.752;2022-08-02T15:16:19;30.30;48.90
46137;DHT22;31871;49.418;8.752;2022-08-02T15:18:44;30.20;49.60
46137;DHT22;31871;49.418;8.752;2022-08-02T15:21:10;30.10;51.00
46137;DHT22;31871;49.418;8.752;2022-08-02T15:23:36;30.00;48.70
46137;DHT22;31871;49.418;8.752;2022-08-02T15:26:03;29.70;50.40
46137;DHT22;31871;49.418;8.752;2022-08-02T15:28:28;29.50;52.40
46137;DHT22;31871;49.418;8.752;2022-08-02T15:30:56;29.40;52.40
46137;DHT22;31871;49.418;8.752;2022-08-02T15:33:22;29.40;52.40
46137;DHT22;31871;49.418;8.752;2022-08-02T15:35:48;29.60;51.40
46137;DHT22;31871;49.418;8.752;2022-08-02T15:38:14;29.80;50.50
46137;DHT22;31871;49.418;8.752;2022-08-02T15:40:40;30.10;48.10
46137;DHT22;31871;49.418;8.752;2022-08-02T15:43:07;30.20;49.00
46137;DHT22;31871;49.418;8.752;2022-08-02T15:45:34;30.10;48.20
46137;DHT22;31871;49.418;8.752;2022-08-02T15:48:00;29.90;48.60
46137;DHT22;31871;49.418;8.752;2022-08-02T15:50:25;29.70;49.30
46137;DHT22;31871;49.418;8.752;2022-08-02T15:52:51;29.70;49.00
46137;DHT22;31871;49.418;8.752;2022-08-02T15:55:17;29.70;48.40
46137;DHT22;31871;49.418;8.752;2022-08-02T15:57:42;29.80;48.90
46137;DHT22;31871;49.418;8.752;2022-08-02T16:00:08;29.90;49.50
46137;DHT22;31871;49.418;8.752;2022-08-02T16:02:34;29.70;50.90
46137;DHT22;31871;49.418;8.752;2022-08-02T16:05:00;29.70;51.40
46137;DHT22;31871;49.418;8.752;2022-08-02T16:07:25;29.60;51.20
46137;DHT22;31871;49.418;8.752;2022-08-02T16:09:51;29.60;50.20
46137;DHT22;31871;49.418;8.752;2022-08-02T16:12:16;29.40;51.20
46137;DHT22;31871;49.418;8.752;2022-08-02T16:14:42;29.40;49.90
46137;DHT22;31871;49.418;8.752;2022-08-02T16:17:08;29.50;49.20
46137;DHT22;31871;49.418;8.752;2022-08-02T16:19:33;29.40;49.70
46137;DHT22;31871;49.418;8.752;2022-08-02T16:21:59;29.40;51.40
46137;DHT22;31871;49.418;8.752;2022-08-02T16:24:25;29.50;48.90
46137;DHT22;31871;49.418;8.752;2022-08-02T16:26:51;29.50;50.10
46137;DHT22;31871;49.418;8.752;2022-08-02T16:29:17;29.70;48.80
46137;DHT22;31871;49.418;8.752;2022-08-02T16:31:44;29.80;48.50
46137;DHT22;31871;49.418;8.752;2022-08-02T16:34:10;29.80;48.20
46137;DHT22;31871;49.418;8.752;2022-08-02T16:36:36;29.90;48.40
46137;DHT22;31871;49.418;8.752;2022-08-02T16:39:02;30.00;47.60
46137;DHT22;31871;49.418;8.752;2022-08-02T16:41:28;30.00;47.40
46137;DHT22;31871;49.418;8.752;2022-08-02T16:43:53;30.00;48.40
46137;DHT22;31871;49.418;8.752;2022-08-02T16:46:19;30.00;48.60
46137;DHT22;31871;49.418;8.752;2022-08-02T16:48:45;30.00;50.00
46137;DHT22;31871;49.418;8.752;2022-08-02T16:51:10;29.90;48.30
46137;DHT22;31871;49.418;8.752;2022-08-02T16:53:36;30.00;49.20
46137;DHT22;31871;49.418;8.752;2022-08-02T16:56:02;30.10;49.40
46137;DHT22;31871;49.418;8.752;2022-08-02T16:58:27;30.00;48.50
46137;DHT22;31871;49.418;8.752;2022-08-02T17:00:53;30.10;50.70
46137;DHT22;31871;49.418;8.752;2022-08-02T17:03:18;30.00;55.10
46137;DHT22;31871;49.418;8.752;2022-08-02T17:05:44;29.50;56.30
46137;DHT22;31871;49.418;8.752;2022-08-02T17:08:10;29.20;58.30
46137;DHT22;31871;49.418;8.752;2022-08-02T17:10:36;29.00;58.90
46137;DHT22;31871;49.418;8.752;2022-08-02T17:13:05;29.10;59.40
46137;DHT22;31871;49.418;8.752;2022-08-02T17:15:31;29.00;59.60
46137;DHT22;31871;49.418;8.752;2022-08-02T17:17:57;29.10;59.60
46137;DHT22;31871;49.418;8.752;2022-08-02T17:20:24;29.20;59.40
46137;DHT22;31871;49.418;8.752;2022-08-02T17:22:51;29.40;59.70
46137;DHT22;31871;49.418;8.752;2022-08-02T17:25:16;29.60;59.70
46137;DHT22;31871;49.418;8.752;2022-08-02T17:27:43;29.70;58.40
46137;DHT22;31871;49.418;8.752;2022-08-02T17:30:09;29.80;58.40
46137;DHT22;31871;49.418;8.752;2022-08-02T17:32:35;29.80;59.00
46137;DHT22;31871;49.418;8.752;2022-08-02T17:35:01;29.70;60.20
46137;DHT22;31871;49.418;8.752;2022-08-02T17:37:27;29.60;59.70
46137;DHT22;31871;49.418;8.752;2022-08-02T17:39:53;29.40;60.40
46137;DHT22;31871;49.418;8.752;2022-08-02T17:42:19;29.40;60.50
46137;DHT22;31871;49.418;8.752;2022-08-02T17:44:45;29.50;60.40
46137;DHT22;31871;49.418;8.752;2022-08-02T17:47:11;29.60;59.80
46137;DHT22;31871;49.418;8.752;2022-08-02T17:49:36;29.70;59.00
46137;DHT22;31871;49.418;8.752;2022-08-02T17:52:02;29.50;59.40
46137;DHT22;31871;49.418;8.752;2022-08-02T17:54:28;29.50;59.40
46137;DHT22;31871;49.418;8.752;2022-08-02T17:56:53;29.50;59.50
46137;DHT22;31871;49.418;8.752;2022-08-02T17:59:22;29.60;59.30
46137;DHT22;31871;49.418;8.752;2022-08-02T18:01:54;29.60;59.00
46137;DHT22;31871;49.418;8.752;2022-08-02T18:04:21;29.50;58.90
46137;DHT22;31871;49.418;8.752;2022-08-02T18:06:51;29.50;59.20
46137;DHT22;31871;49.418;8.752;2022-08-02T18:09:17;29.40;58.90
46137;DHT22;31871;49.418;8.752;2022-08-02T18:11:43;29.20;59.10
46137;DHT22;31871;49.418;8.752;2022-08-02T18:14:10;29.10;60.10
46137;DHT22;31871;49.418;8.752;2022-08-02T18:16:39;29.20;60.20
46137;DHT22;31871;49.418;8.752;2022-08-02T18:19:04;29.10;60.50
46137;DHT22;31871;49.418;8.752;2022-08-02T18:21:30;29.00;60.60
46137;DHT22;31871;49.418;8.752;2022-08-02T18:23:56;28.80;60.80
46137;DHT22;31871;49.418;8.752;2022-08-02T18:26:21;28.60;60.80
46137;DHT22;31871;49.418;8.752;2022-08-02T18:28:47;28.60;61.00
46137;DHT22;31871;49.418;8.752;2022-08-02T18:31:13;28.50;61.50
46137;DHT22;31871;49.418;8.752;2022-08-02T18:33:41;28.30;61.70
46137;DHT22;31871;49.418;8.752;2022-08-02T18:36:08;28.10;62.60
46137;DHT22;31871;49.418;8.752;2022-08-02T18:38:35;28.10;62.90
46137;DHT22;31871;49.418;8.752;2022-08-02T18:41:00;28.10;62.50
46137;DHT22;31871;49.418;8.752;2022-08-02T18:43:31;28.20;62.80
46137;DHT22;31871;49.418;8.752;2022-08-02T18:45:57;28.10;64.10
46137;DHT22;31871;49.418;8.752;2022-08-02T18:48:23;27.90;63.20
46137;DHT22;31871;49.418;8.752;2022-08-02T18:50:49;27.70;63.40
46137;DHT22;31871;49.418;8.752;2022-08-02T18:53:15;27.70;64.60
46137;DHT22;31871;49.418;8.752;2022-08-02T18:55:42;27.70;64.50
46137;DHT22;31871;49.418;8.752;2022-08-02T18:58:07;27.80;63.60
46137;DHT22;31871;49.418;8.752;2022-08-02T19:00:33;27.90;61.60
46137;DHT22;31871;49.418;8.752;2022-08-02T19:03:00;28.00;61.30
46137;DHT22;31871;49.418;8.752;2022-08-02T19:05:25;27.90;63.60
46137;DHT22;31871;49.418;8.752;2022-08-02T19:07:51;27.80;63.50
46137;DHT22;31871;49.418;8.752;2022-08-02T19:10:16;27.70;62.40
46137;DHT22;31871;49.418;8.752;2022-08-02T19:12:43;27.40;63.00
46137;DHT22;31871;49.418;8.752;2022-08-02T19:15:08;27.20;63.00
46137;DHT22;31871;49.418;8.752;2022-08-02T19:17:36;27.10;64.00
46137;DHT22;31871;49.418;8.752;2022-08-02T19:20:02;27.10;64.90
46137;DHT22;31871;49.418;8.752;2022-08-02T19:22:29;26.90;66.90
46137;DHT22;31871;49.418;8.752;2022-08-02T19:24:55;26.80;67.30
46137;DHT22;31871;49.418;8.752;2022-08-02T19:27:21;26.60;67.10
46137;DHT22;31871;49.418;8.752;2022-08-02T19:29:47;26.50;67.00
46137;DHT22;31871;49.418;8.752;2022-08-02T19:32:13;26.50;67.80
46137;DHT22;31871;49.418;8.752;2022-08-02T19:34:39;26.50;68.20
46137;DHT22;31871;49.418;8.752;2022-08-02T19:37:05;26.40;68.40
46137;DHT22;31871;49.418;8.752;2022-08-02T19:39:30;26.30;67.90
46137;DHT22;31871;49.418;8.752;2022-08-02T19:41:56;26.20;67.00
46137;DHT22;31871;49.418;8.752;2022-08-02T19:44:21;26.10;68.30
46137;DHT22;31871;49.418;8.752;2022-08-02T19:46:47;25.90;67.20
46137;DHT22;31871;49.418;8.752;2022-08-02T19:49:13;25.70;68.30
46137;DHT22;31871;49.418;8.752;2022-08-02T19:51:38;25.80;69.30
46137;DHT22;31871;49.418;8.752;2022-08-02T19:54:04;25.90;70.10
46137;DHT22;31871;49.418;8.752;2022-08-02T19:56:30;26.00;71.40
46137;DHT22;31871;49.418;8.752;2022-08-02T19:58:55;26.00;71.90
46137;DHT22;31871;49.418;8.752;2022-08-02T20:01:22;26.00;71.70
46137;DHT22;31871;49.418;8.752;2022-08-02T20:03:48;25.90;70.60
46137;DHT22;31871;49.418;8.752;2022-08-02T20:06:15;25.80;69.40
46137;DHT22;31871;49.418;8.752;2022-08-02T20:08:41;25.80;70.50
46137;DHT22;31871;49.418;8.752;2022-08-02T20:11:07;25.70;70.60
46137;DHT22;31871;49.418;8.752;2022-08-02T20:13:33;25.70;71.60
46137;DHT22;31871;49.418;8.752;2022-08-02T20:15:58;25.60;71.30
46137;DHT22;31871;49.418;8.752;2022-08-02T20:18:25;25.60;72.70
46137;DHT22;31871;49.418;8.752;2022-08-02T20:20:53;25.70;72.00
46137;DHT22;31871;49.418;8.752;2022-08-02T20:23:19;25.60;71.50
46137;DHT22;31871;49.418;8.752;2022-08-02T20:25:47;25.60;71.70
46137;DHT22;31871;49.418;8.752;2022-08-02T20:28:13;25.50;72.60
46137;DHT22;31871;49.418;8.752;2022-08-02T20:30:39;25.40;72.50
46137;DHT22;31871;49.418;8.752;2022-08-02T20:33:06;25.40;72.00
46137;DHT22;31871;49.418;8.752;2022-08-02T20:35:32;25.40;71.70
46137;DHT22;31871;49.418;8.752;2022-08-02T20:37:57;25.30;72.40
46137;DHT22;31871;49.418;8.752;2022-08-02T20:40:25;25.30;71.80
46137;DHT22;31871;49.418;8.752;2022-08-02T20:42:52;25.40;70.90
46137;DHT22;31871;49.418;8.752;2022-08-02T20:45:19;25.40;70.40
46137;DHT22;31871;49.418;8.752;2022-08-02T20:47:46;25.50;71.00
46137;DHT22;31871;49.418;8.752;2022-08-02T20:50:12;25.50;71.10
46137;DHT22;31871;49.418;8.752;2022-08-02T20:52:56;25.50;69.10
46137;DHT22;31871;49.418;8.752;2022-08-02T20:55:22;25.50;69.00
46137;DHT22;31871;49.418;8.752;2022-08-02T20:57:48;25.40;69.40
46137;DHT22;31871;49.418;8.752;2022-08-02T21:00:14;25.40;70.40
46137;DHT22;31871;49.418;8.752;2022-08-02T21:02:41;25.40;71.70
46137;DHT22;31871;49.418;8.752;2022-08-02T21:05:07;25.30;73.50
46137;DHT22;31871;49.418;8.752;2022-08-02T21:07:33;25.20;73.30
46137;DHT22;31871;49.418;8.752;2022-08-02T21:09:58;25.00;74.30
46137;DHT22;31871;49.418;8.752;2022-08-02T21:12:25;24.90;74.70
46137;DHT22;31871;49.418;8.752;2022-08-02T21:14:51;24.80;75.20
46137;DHT22;31871;49.418;8.752;2022-08-02T21:17:17;24.80;74.80
46137;DHT22;31871;49.418;8.752;2022-08-02T21:19:43;24.80;74.00
46137;DHT22;31871;49.418;8.752;2022-08-02T21:22:08;24.70;73.70
46137;DHT22;31871;49.418;8.752;2022-08-02T21:24:34;24.70;74.90
46137;DHT22;31871;49.418;8.752;2022-08-02T21:26:59;24.60;75.60
46137;DHT22;31871;49.418;8.752;2022-08-02T21:29:25;24.50;76.20
46137;DHT22;31871;49.418;8.752;2022-08-02T21:31:51;24.50;76.30
46137;DHT22;31871;49.418;8.752;2022-08-02T21:34:17;24.50;75.10
46137;DHT22;31871;49.418;8.752;2022-08-02T21:36:42;24.50;76.40
46137;DHT22;31871;49.418;8.752;2022-08-02T21:39:08;24.50;77.20
46137;DHT22;31871;49.418;8.752;2022-08-02T21:41:37;24.50;76.20
46137;DHT22;31871;49.418;8.752;2022-08-02T21:44:03;24.50;76.70
46137;DHT22;31871;49.418;8.752;2022-08-02T21:46:28;24.40;75.90
46137;DHT22;31871;49.418;8.752;2022-08-02T21:48:54;24.40;75.70
46137;DHT22;31871;49.418;8.752;2022-08-02T21:51:19;24.30;75.30
46137;DHT22;31871;49.418;8.752;2022-08-02T21:53:45;24.40;75.60
46137;DHT22;31871;49.418;8.752;2022-08-02T21:56:10;24.40;75.70
46137;DHT22;31871;49.418;8.752;2022-08-02T21:58:36;24.40;75.40
46137;DHT22;31871;49.418;8.752;2022-08-02T22:01:02;24.40;75.60
46137;DHT22;31871;49.418;8.752;2022-08-02T22:03:28;24.40;76.00
46137;DHT22;31871;49.418;8.752;2022-08-02T22:05:53;24.40;76.40
46137;DHT22;31871;49.418;8.752;2022-08-02T22:08:19;24.40;76.50
46137;DHT22;31871;49.418;8.752;2022-08-02T22:10:44;24.30;77.10
46137;DHT22;31871;49.418;8.752;2022-08-02T22:13:29;24.30;76.90
46137;DHT22;31871;49.418;8.752;2022-08-02T22:15:55;24.20;77.30
46137;DHT22;31871;49.418;8.752;2022-08-02T22:18:25;24.20;77.60
46137;DHT22;31871;49.418;8.752;2022-08-02T22:20:51;24.10;77.50
46137;DHT22;31871;49.418;8.752;2022-08-02T22:23:17;24.00;77.50
46137;DHT22;31871;49.418;8.752;2022-08-02T22:25:43;24.00;77.80
46137;DHT22;31871;49.418;8.752;2022-08-02T22:28:11;23.90;78.80
46137;DHT22;31871;49.418;8.752;2022-08-02T22:30:37;23.90;79.90
46137;DHT22;31871;49.418;8.752;2022-08-02T22:33:03;23.70;78.90
46137;DHT22;31871;49.418;8.752;2022-08-02T22:35:48;23.70;78.90
46137;DHT22;31871;49.418;8.752;2022-08-02T22:38:14;23.70;80.20
46137;DHT22;31871;49.418;8.752;2022-08-02T22:40:39;23.60;80.10
46137;DHT22;31871;49.418;8.752;2022-08-02T22:43:05;23.60;80.90
46137;DHT22;31871;49.418;8.752;2022-08-02T22:45:31;23.50;81.30
46137;DHT22;31871;49.418;8.752;2022-08-02T22:47:56;23.50;83.40
46137;DHT22;31871;49.418;8.752;2022-08-02T22:50:22;23.40;82.80
46137;DHT22;31871;49.418;8.752;2022-08-02T22:52:50;23.40;84.20
46137;DHT22;31871;49.418;8.752;2022-08-02T22:55:16;23.30;84.30
46137;DHT22;31871;49.418;8.752;2022-08-02T22:57:42;23.30;82.70
46137;DHT22;31871;49.418;8.752;2022-08-02T23:00:08;23.30;82.10
46137;DHT22;31871;49.418;8.752;2022-08-02T23:02:34;23.30;81.90
46137;DHT22;31871;49.418;8.752;2022-08-02T23:05:00;23.30;81.80
46137;DHT22;31871;49.418;8.752;2022-08-02T23:07:26;23.40;82.40
46137;DHT22;31871;49.418;8.752;2022-08-02T23:09:52;23.30;84.60
46137;DHT22;31871;49.418;8.752;2022-08-02T23:12:18;23.30;85.40
46137;DHT22;31871;49.418;8.752;2022-08-02T23:14:48;23.20;85.70
46137;DHT22;31871;49.418;8.752;2022-08-02T23:17:18;23.10;86.40
46137;DHT22;31871;49.418;8.752;2022-08-02T23:20:07;23.10;86.80
46137;DHT22;31871;49.418;8.752;2022-08-02T23:22:34;23.00;86.70
46137;DHT22;31871;49.418;8.752;2022-08-02T23:25:00;23.00;87.20
46137;DHT22;31871;49.418;8.752;2022-08-02T23:27:27;23.00;86.10
46137;DHT22;31871;49.418;8.752;2022-08-02T23:29:53;23.00;85.60
46137;DHT22;31871;49.418;8.752;2022-08-02T23:32:18;23.00;86.40
46137;DHT22;31871;49.418;8.752;2022-08-02T23:34:44;22.90;85.80
46137;DHT22;31871;49.418;8.752;2022-08-02T23:37:10;22.90;85.80
46137;DHT22;31871;49.418;8.752;2022-08-02T23:39:36;22.90;85.90
46137;DHT22;31871;49.418;8.752;2022-08-02T23:42:03;22.90;86.00
46137;DHT22;31871;49.418;8.752;2022-08-02T23:44:28;22.90;85.90
46137;DHT22;31871;49.418;8.752;2022-08-02T23:46:55;22.90;85.90
46137;DHT22;31871;49.418;8.752;2022-08-02T23:49:21;22.90;86.20
46137;DHT22;31871;49.418;8.752;2022-08-02T23:51:49;22.90;86.10
46137;DHT22;31871;49.418;8.752;2022-08-02T23:54:15;22.90;86.10
46137;DHT22;31871;49.418;8.752;2022-08-02T23:56:41;22.90;86.00
46137;DHT22;31871;49.418;8.752;2022-08-02T23:59:07;22.90;86.30
